createdAt,value
2023-04-16T00:04:58.878Z,7.08
2023-04-16T00:10:01.093Z,7.08
2023-04-16T00:15:03.822Z,7.08
2023-04-16T00:20:06.614Z,7.08
2023-04-16T00:25:09.096Z,7.07
2023-04-16T00:30:12.076Z,7.06
2023-04-16T00:35:13.854Z,7.05
2023-04-16T00:40:16.153Z,7.02
2023-04-16T00:45:18.216Z,7.00
2023-04-16T00:50:21.114Z,6.98
2023-04-16T00:55:22.904Z,6.96
2023-04-16T01:00:25.892Z,6.95
2023-04-16T01:05:27.875Z,6.94
2023-04-16T01:10:29.547Z,6.93
2023-04-16T01:15:31.324Z,6.93
2023-04-16T01:20:35.862Z,6.92
2023-04-16T01:25:38.862Z,6.92
2023-04-16T01:30:41.097Z,6.91
2023-04-16T01:35:43.335Z,6.91
2023-04-16T01:40:45.310Z,6.91
2023-04-16T01:45:46.993Z,6.90
2023-04-16T01:50:48.761Z,6.89
2023-04-16T01:55:50.563Z,6.89
2023-04-16T02:00:52.336Z,6.89
2023-04-16T02:05:54.391Z,6.88
2023-04-16T02:10:57.185Z,6.88
2023-04-16T02:15:59.098Z,6.88
2023-04-16T02:21:01.250Z,6.87
2023-04-16T02:26:03.428Z,6.85
2023-04-16T02:31:05.305Z,6.83
2023-04-16T02:36:07.406Z,6.80
2023-04-16T02:41:09.286Z,6.78
2023-04-16T02:46:11.082Z,6.76
2023-04-16T02:51:12.915Z,6.74
2023-04-16T02:56:14.700Z,6.72
2023-04-16T03:01:17.709Z,6.69
2023-04-16T03:06:19.576Z,6.67
2023-04-16T03:11:21.465Z,6.64
2023-04-16T03:16:23.292Z,6.61
2023-04-16T03:21:27.246Z,6.58
2023-04-16T03:26:29.434Z,6.53
2023-04-16T03:31:31.607Z,6.47
2023-04-16T03:36:33.700Z,6.41
2023-04-16T03:41:35.499Z,6.36
2023-04-16T03:46:37.277Z,6.33
2023-04-16T03:51:39.124Z,6.31
2023-04-16T03:56:41.625Z,6.30
2023-04-16T04:01:43.840Z,6.30
2023-04-16T04:06:46.706Z,6.30
2023-04-16T04:11:48.479Z,6.28
2023-04-16T04:16:50.353Z,6.24
2023-04-16T04:21:52.539Z,6.20
2023-04-16T04:26:54.214Z,6.19
2023-04-16T04:31:56.113Z,6.21
2023-04-16T04:36:59.102Z,6.23
2023-04-16T04:42:02.914Z,6.22
2023-04-16T04:47:04.680Z,6.23
2023-04-16T04:52:06.573Z,6.25
2023-04-16T04:57:08.435Z,6.26
2023-04-16T05:02:10.357Z,6.23
2023-04-16T05:07:12.054Z,6.28
2023-04-16T05:12:13.967Z,6.31
2023-04-16T05:17:16.046Z,6.39
2023-04-16T05:22:18.555Z,6.46
2023-04-16T05:27:20.419Z,6.47
2023-04-16T05:32:24.772Z,6.55
2023-04-16T05:37:26.483Z,6.64
2023-04-16T05:42:28.418Z,6.76
2023-04-16T05:47:30.434Z,6.88
2023-04-16T05:52:32.358Z,6.99
2023-04-16T05:57:34.025Z,7.17
2023-04-16T06:02:35.956Z,7.46
2023-04-16T06:07:38.093Z,7.64
2023-04-16T06:12:40.379Z,7.67
2023-04-16T06:17:42.234Z,7.72
2023-04-16T06:22:44.587Z,7.56
2023-04-16T06:27:47.548Z,7.42
2023-04-16T06:32:49.866Z,7.35
2023-04-16T06:37:51.812Z,7.44
2023-04-16T06:42:53.900Z,7.79
2023-04-16T06:47:55.952Z,8.09
2023-04-16T06:52:58.056Z,8.35
2023-04-16T06:57:59.828Z,8.54
2023-04-16T07:03:02.931Z,8.52
2023-04-16T07:08:05.340Z,8.54
2023-04-16T07:13:08.222Z,8.46
2023-04-16T07:18:11.077Z,8.44
2023-04-16T07:23:13.518Z,8.38
2023-04-16T07:28:18.289Z,8.37
2023-04-16T07:33:20.652Z,8.31
2023-04-16T07:38:22.523Z,8.29
2023-04-16T07:43:24.406Z,8.29
2023-04-16T07:48:26.380Z,8.48
2023-04-16T07:53:29.172Z,8.71
2023-04-16T07:58:31.154Z,8.87
2023-04-16T08:03:33.199Z,8.87
2023-04-16T08:08:36.448Z,8.75
2023-04-16T08:13:38.228Z,8.58
2023-04-16T08:18:40.720Z,8.64
2023-04-16T08:23:43.031Z,8.93
2023-04-16T08:28:46.006Z,9.07
2023-04-16T08:33:47.879Z,8.84
2023-04-16T08:38:51.911Z,8.53
2023-04-16T08:43:59.360Z,8.38
2023-04-16T08:49:03.203Z,8.42
2023-04-16T08:54:09.030Z,8.42
2023-04-16T08:59:11.515Z,8.31
2023-04-16T09:04:16.384Z,8.22
2023-04-16T09:09:20.879Z,8.31
2023-04-16T09:14:22.843Z,8.42
2023-04-16T09:19:25.051Z,8.47
2023-04-16T09:24:28.659Z,8.47
2023-04-16T09:29:38.836Z,8.45
2023-04-16T09:35:00.198Z,8.45
2023-04-16T09:40:05.061Z,8.51
2023-04-16T09:45:09.045Z,8.57
2023-04-16T09:50:19.580Z,8.67
2023-04-16T09:55:27.254Z,8.70
2023-04-16T10:00:31.105Z,8.79
2023-04-16T10:05:34.184Z,8.98
2023-04-16T10:10:37.597Z,9.16
2023-04-16T10:15:41.133Z,9.20
2023-04-16T10:20:45.124Z,9.18
2023-04-16T10:25:49.380Z,9.19
2023-04-16T10:30:53.572Z,9.26
2023-04-16T10:36:15.042Z,9.24
2023-04-16T10:41:19.538Z,9.11
2023-04-16T10:46:26.431Z,9.06
2023-04-16T10:51:35.401Z,9.04
2023-04-16T10:56:37.769Z,9.05
2023-04-16T11:01:44.156Z,9.08
2023-04-16T11:07:05.951Z,9.02
2023-04-16T11:12:12.710Z,9.04
2023-04-16T11:17:16.599Z,8.98
2023-04-16T11:22:18.297Z,8.97
2023-04-16T11:27:20.388Z,8.99
2023-04-16T11:32:22.638Z,8.99
2023-04-16T11:37:35.527Z,8.94
2023-04-16T11:42:40.212Z,8.85
2023-04-16T11:47:47.185Z,8.79
2023-04-16T11:52:50.975Z,8.77
2023-04-16T11:57:53.076Z,8.79
2023-04-16T12:02:55.663Z,8.87
2023-04-16T12:07:59.266Z,8.98
2023-04-16T12:13:15.171Z,9.00
2023-04-16T12:18:20.368Z,8.95
2023-04-16T12:23:28.828Z,8.94
2023-04-16T12:28:33.589Z,8.89
2023-04-16T12:33:35.942Z,8.87
2023-04-16T12:38:38.264Z,8.78
2023-04-16T12:43:40.247Z,8.68
2023-04-16T12:48:43.147Z,8.60
2023-04-16T12:53:45.257Z,8.48
2023-04-16T12:58:50.385Z,8.43
2023-04-16T13:03:52.570Z,8.49
2023-04-16T13:08:54.848Z,8.59
2023-04-16T13:13:57.444Z,8.69
2023-04-16T13:19:00.246Z,8.76
2023-04-16T13:24:04.505Z,8.77
2023-04-16T13:29:07.972Z,8.74
2023-04-16T13:34:11.123Z,8.81
2023-04-16T13:39:14.006Z,8.95
2023-04-16T13:44:16.498Z,9.00
2023-04-16T13:49:19.092Z,9.04
2023-04-16T13:54:20.899Z,9.07
2023-04-16T13:59:24.334Z,9.15
2023-04-16T14:04:26.674Z,9.20
2023-04-16T14:09:29.046Z,9.30
2023-04-16T14:14:31.531Z,9.36
2023-04-16T14:19:33.514Z,9.55
2023-04-16T14:24:35.913Z,9.86
2023-04-16T14:29:38.192Z,10.15
2023-04-16T14:34:40.068Z,10.33
2023-04-16T14:39:42.042Z,10.39
2023-04-16T14:44:44.124Z,10.44
2023-04-16T14:49:46.325Z,10.49
2023-04-16T14:54:48.183Z,10.30
2023-04-16T14:59:50.279Z,10.01
2023-04-16T15:04:52.245Z,9.74
2023-04-16T15:09:55.043Z,9.46
2023-04-16T15:14:57.038Z,9.32
2023-04-16T15:19:59.113Z,9.22
2023-04-16T15:25:02.546Z,9.17
2023-04-16T15:30:09.450Z,9.13
2023-04-16T15:35:13.038Z,9.06
2023-04-16T15:40:15.738Z,8.97
2023-04-16T15:45:18.030Z,8.91
2023-04-16T15:50:20.622Z,8.89
2023-04-16T15:55:22.555Z,8.91
2023-04-16T16:00:25.670Z,8.93
2023-04-16T16:05:27.682Z,8.85
2023-04-16T16:10:29.658Z,8.74
2023-04-16T16:15:32.039Z,8.68
2023-04-16T16:20:34.643Z,8.67
2023-04-16T16:25:37.552Z,8.64
2023-04-16T16:30:40.536Z,8.61
2023-04-16T16:35:42.314Z,8.57
2023-04-16T16:40:44.092Z,8.54
2023-04-16T16:45:46.299Z,8.48
2023-04-16T16:50:48.150Z,8.40
2023-04-16T16:55:49.921Z,8.33
2023-04-16T17:00:52.592Z,8.28
2023-04-16T17:05:54.909Z,8.24
2023-04-16T17:10:56.687Z,8.18
2023-04-16T17:15:58.604Z,8.14
2023-04-16T17:21:01.263Z,8.11
2023-04-16T17:26:03.270Z,8.10
2023-04-16T17:31:08.289Z,8.06
2023-04-16T17:36:10.587Z,8.04
2023-04-16T17:41:12.971Z,8.00
2023-04-16T17:46:14.934Z,7.97
2023-04-16T17:51:17.133Z,7.93
2023-04-16T17:56:19.726Z,7.90
2023-04-16T18:01:21.920Z,7.88
2023-04-16T18:06:23.882Z,7.87
2023-04-16T18:11:28.448Z,7.86
2023-04-16T18:16:32.960Z,7.84
2023-04-16T18:21:36.069Z,7.82
2023-04-16T18:26:41.061Z,7.79
2023-04-16T18:31:44.155Z,7.76
2023-04-16T18:36:46.400Z,7.72
2023-04-16T18:41:48.184Z,7.70
2023-04-16T18:46:50.318Z,7.68
2023-04-16T18:51:55.626Z,7.66
2023-04-16T18:56:59.725Z,7.67
2023-04-16T19:02:03.577Z,7.66
2023-04-16T19:07:07.299Z,7.65
2023-04-16T19:12:10.199Z,7.65
2023-04-16T19:17:13.413Z,7.65
2023-04-16T19:22:15.576Z,7.64
2023-04-16T19:27:17.896Z,7.63
2023-04-16T19:32:20.672Z,7.61
2023-04-16T19:37:24.429Z,7.59
2023-04-16T19:42:27.289Z,7.59
2023-04-16T19:47:30.105Z,7.59
2023-04-16T19:52:38.324Z,7.58
2023-04-16T19:57:40.615Z,7.57
2023-04-16T20:02:43.373Z,7.56
2023-04-16T20:07:45.580Z,7.54
2023-04-16T20:12:47.579Z,7.53
2023-04-16T20:17:49.741Z,7.50
2023-04-16T20:22:52.544Z,7.49
2023-04-16T20:27:55.006Z,7.46
2023-04-16T20:32:58.095Z,7.42
2023-04-16T20:38:00.949Z,7.39
2023-04-16T20:43:03.027Z,7.35
2023-04-16T20:48:05.360Z,7.31
2023-04-16T20:53:07.075Z,7.28
2023-04-16T20:58:08.853Z,7.27
2023-04-16T21:03:11.407Z,7.25
2023-04-16T21:08:13.735Z,7.24
2023-04-16T21:13:16.542Z,7.24
2023-04-16T21:18:18.316Z,7.23
2023-04-16T21:23:20.299Z,7.22
2023-04-16T21:28:22.063Z,7.22
2023-04-16T21:33:24.042Z,7.23
2023-04-16T21:38:26.026Z,7.24
2023-04-16T21:43:31.531Z,7.23
2023-04-16T21:48:33.253Z,7.22
2023-04-16T21:53:36.413Z,7.21
2023-04-16T21:58:38.562Z,7.21
2023-04-16T22:03:41.010Z,7.20
2023-04-16T22:08:43.127Z,7.19
2023-04-16T22:13:47.354Z,7.17
2023-04-16T22:18:49.540Z,7.16
2023-04-16T22:23:51.415Z,7.15
2023-04-16T22:28:53.087Z,7.13
2023-04-16T22:33:55.060Z,7.11
2023-04-16T22:38:56.732Z,7.10
2023-04-16T22:43:58.401Z,7.09
2023-04-16T22:49:00.508Z,7.08
2023-04-16T22:54:02.373Z,7.09
2023-04-16T22:59:05.566Z,7.09
2023-04-16T23:04:07.566Z,7.10
2023-04-16T23:09:10.588Z,7.11
2023-04-16T23:14:15.005Z,7.09
2023-04-16T23:19:18.580Z,7.09
2023-04-16T23:24:20.381Z,7.08
2023-04-16T23:29:22.262Z,7.08
2023-04-16T23:34:24.544Z,7.07
2023-04-16T23:39:26.831Z,7.08
2023-04-16T23:44:28.615Z,7.07
2023-04-16T23:49:30.387Z,7.06
2023-04-16T23:54:32.260Z,7.05
2023-04-16T23:59:34.038Z,7.04
